Time;durP1;ratioP1;P1;durP2;ratioP2;P2;SDS_P1;SDS_P2;PMS_P1;PMS_P2;Temp;Humidity;BMP_temperature;BMP_pressure;BME280_temperature;BME280_humidity;BME280_pressure;Samples;Min_cycle;Max_cycle;Signal;HPM_P1;HPM_P2
2022/10/30 04:05:19;;;;;;;5.47;4.27;;;12.50;99.90;;;;;;5260273;22;20990;-65
2022/10/30 04:07:46;;;;;;;6.60;4.33;;;12.50;99.90;;;;;;5033720;28;20458;-65
2022/10/30 04:10:13;;;;;;;5.57;3.40;;;12.50;99.90;;;;;;5033524;28;20419;-64
2022/10/30 04:12:38;;;;;;;6.77;3.47;;;12.50;99.90;;;;;;5018491;28;20464;-65
2022/10/30 04:15:06;;;;;;;5.60;3.97;;;12.50;99.90;;;;;;5005949;28;20478;-64
2022/10/30 04:17:33;;;;;;;6.53;5.70;;;12.50;99.90;;;;;;5013825;28;20205;-65
2022/10/30 04:19:58;;;;;;;6.10;3.50;;;12.50;99.90;;;;;;5013570;28;20442;-64
2022/10/30 04:22:24;;;;;;;7.07;4.33;;;12.40;99.90;;;;;;5013306;28;20906;-67
2022/10/30 04:24:50;;;;;;;4.93;4.47;;;12.40;99.90;;;;;;5013271;28;20210;-65
2022/10/30 04:27:15;;;;;;;7.53;3.80;;;12.40;99.90;;;;;;5013620;28;20419;-66
2022/10/30 04:29:41;;;;;;;6.07;4.13;;;12.40;99.90;;;;;;4995510;28;20181;-65
2022/10/30 04:32:08;;;;;;;5.23;4.20;;;12.30;99.90;;;;;;5013875;28;20181;-65
2022/10/30 04:34:34;;;;;;;7.00;4.07;;;12.30;99.90;;;;;;5012256;28;20213;-65
2022/10/30 04:37:00;;;;;;;3.47;3.00;;;12.30;99.90;;;;;;5013422;28;20520;-66
2022/10/30 04:39:25;;;;;;;4.07;3.73;;;12.20;99.90;;;;;;5026506;28;20256;-66
2022/10/30 04:41:51;;;;;;;5.50;3.80;;;12.20;99.90;;;;;;5033269;28;20533;-66
2022/10/30 04:44:16;;;;;;;8.13;4.10;;;12.20;99.90;;;;;;5013272;28;20200;-66
2022/10/30 04:46:42;;;;;;;5.90;3.67;;;12.20;99.90;;;;;;5013797;28;20183;-66
2022/10/30 04:49:08;;;;;;;4.93;3.80;;;12.10;99.90;;;;;;5013483;28;20170;-65
2022/10/30 04:51:33;;;;;;;5.33;3.87;;;12.10;99.90;;;;;;5013569;28;20212;-66
2022/10/30 04:53:59;;;;;;;3.63;3.30;;;12.10;99.90;;;;;;5013097;28;20261;-67
2022/10/30 04:56:24;;;;;;;5.10;4.43;;;12.10;99.90;;;;;;5009440;28;20771;-66
2022/10/30 04:58:51;;;;;;;4.97;3.60;;;12.10;99.90;;;;;;5013315;28;20213;-66
2022/10/30 05:01:17;;;;;;;4.27;3.87;;;12.10;99.90;;;;;;5013341;28;20623;-66
2022/10/30 05:03:42;;;;;;;13.70;4.37;;;12.10;99.90;;;;;;5013075;28;20444;-66
2022/10/30 05:06:23;;;;;;;4.40;3.70;;;12.10;99.90;;;;;;5012708;28;20194;-66
2022/10/30 05:08:49;;;;;;;4.70;3.97;;;12.10;99.90;;;;;;5013285;28;20251;-66
2022/10/30 05:11:16;;;;;;;3.47;3.17;;;12.10;99.90;;;;;;5013235;28;20795;-65
2022/10/30 05:13:41;;;;;;;4.03;3.63;;;12.10;99.90;;;;;;5012807;28;20450;-66
2022/10/30 05:16:07;;;;;;;5.47;4.03;;;12.10;99.90;;;;;;5012903;28;20937;-65
2022/10/30 05:18:33;;;;;;;7.67;4.97;;;12.00;99.90;;;;;;5012615;28;20275;-65
2022/10/30 05:20:58;;;;;;;10.13;3.70;;;12.00;99.90;;;;;;5012666;28;20184;-65
2022/10/30 05:23:24;;;;;;;8.60;3.63;;;11.90;99.90;;;;;;5012353;28;20176;-65
2022/10/30 05:25:49;;;;;;;3.30;3.00;;;11.90;99.90;;;;;;5012616;28;20178;-66
2022/10/30 05:28:15;;;;;;;4.20;3.83;;;11.90;99.90;;;;;;5013234;28;20667;-65
2022/10/30 05:30:41;;;;;;;3.90;3.60;;;11.80;99.90;;;;;;5013159;28;20541;-65
2022/10/30 05:33:10;;;;;;;5.90;3.40;;;11.80;99.90;;;;;;5015570;28;20806;-64
2022/10/30 05:35:36;;;;;;;4.10;3.77;;;11.80;99.90;;;;;;5016412;28;20405;-66
2022/10/30 05:38:04;;;;;;;4.30;3.37;;;11.80;99.90;;;;;;5016323;28;20469;-65
2022/10/30 05:40:30;;;;;;;4.07;3.30;;;11.80;99.90;;;;;;5017000;28;20461;-65
2022/10/30 05:42:56;;;;;;;4.70;4.00;;;11.80;99.90;;;;;;5015963;28;20414;-65
2022/10/30 05:45:21;;;;;;;4.27;3.57;;;11.80;99.90;;;;;;5015313;28;20447;-64
2022/10/30 05:47:55;;;;;;;6.60;3.47;;;11.80;99.90;;;;;;5016267;28;20587;-66
2022/10/30 05:50:21;;;;;;;5.30;4.50;;;11.70;99.90;;;;;;5016313;28;20544;-65
2022/10/30 05:52:46;;;;;;;5.50;3.80;;;11.70;99.90;;;;;;5016244;28;20447;-65
2022/10/30 05:55:12;;;;;;;3.70;3.50;;;11.70;99.90;;;;;;5015416;28;20206;-65
2022/10/30 05:57:37;;;;;;;3.70;3.40;;;11.70;99.90;;;;;;5015355;28;20192;-66
2022/10/30 06:00:04;;;;;;;4.33;3.93;;;11.70;99.90;;;;;;5014770;28;20201;-73
2022/10/30 06:02:30;;;;;;;7.30;4.00;;;11.70;99.90;;;;;;5013936;28;20583;-64
2022/10/30 06:04:55;;;;;;;12.90;4.20;;;11.70;99.90;;;;;;5014651;28;20440;-64
2022/10/30 06:07:21;;;;;;;4.53;3.70;;;11.60;99.90;;;;;;5014649;28;20165;-66
2022/10/30 06:09:46;;;;;;;6.30;4.47;;;11.60;99.90;;;;;;5014827;28;20182;-63
2022/10/30 06:12:12;;;;;;;5.03;3.90;;;11.60;99.90;;;;;;5014741;28;20182;-68
2022/10/30 06:14:38;;;;;;;4.23;3.83;;;11.60;99.90;;;;;;4993720;28;20199;-66
2022/10/30 06:17:03;;;;;;;4.20;3.80;;;11.70;99.90;;;;;;5015735;28;20195;-67
2022/10/30 06:19:29;;;;;;;5.53;4.37;;;11.70;99.90;;;;;;5014602;28;20183;-63
2022/10/30 06:21:54;;;;;;;4.77;3.70;;;11.70;99.90;;;;;;5012051;28;20639;-71
2022/10/30 06:24:20;;;;;;;4.90;3.50;;;11.70;99.90;;;;;;5013264;28;20270;-63
2022/10/30 06:26:45;;;;;;;3.90;3.50;;;11.70;99.90;;;;;;5014551;28;20173;-65
2022/10/30 06:29:11;;;;;;;4.60;3.73;;;11.70;99.90;;;;;;5014151;28;20183;-64
2022/10/30 06:31:36;;;;;;;9.90;4.50;;;11.70;99.90;;;;;;5014399;28;20173;-65
2022/10/30 06:34:02;;;;;;;6.87;5.90;;;11.80;99.90;;;;;;5014029;28;20286;-66
2022/10/30 06:36:28;;;;;;;4.23;3.80;;;11.80;99.90;;;;;;5015430;28;20239;-62
2022/10/30 06:38:53;;;;;;;5.33;4.33;;;11.80;99.90;;;;;;5015531;28;20205;-65
2022/10/30 06:41:19;;;;;;;4.97;4.47;;;11.80;99.90;;;;;;5015813;28;20173;-65
2022/10/30 06:43:46;;;;;;;6.90;6.00;;;11.90;99.90;;;;;;4996782;28;20586;-64
2022/10/30 06:46:12;;;;;;;6.10;4.90;;;11.90;99.90;;;;;;5014125;28;20588;-65
2022/10/30 06:48:38;;;;;;;5.27;4.40;;;12.00;99.90;;;;;;5015706;28;20412;-70
2022/10/30 06:51:04;;;;;;;6.47;4.43;;;12.10;99.90;;;;;;5015538;28;20217;-67
2022/10/30 06:53:29;;;;;;;7.17;5.10;;;12.20;99.90;;;;;;5014954;28;20221;-66
2022/10/30 06:56:00;;;;;;;3.70;3.50;;;12.30;99.90;;;;;;5014784;28;20217;-64
2022/10/30 06:58:26;;;;;;;6.13;4.17;;;12.40;99.90;;;;;;5014553;28;20682;-67
2022/10/30 07:00:52;;;;;;;5.03;4.53;;;12.40;99.90;;;;;;5015104;28;20496;-68
2022/10/30 07:03:18;;;;;;;5.50;4.10;;;12.50;99.90;;;;;;5014721;28;20432;-66
2022/10/30 07:05:44;;;;;;;6.57;4.57;;;12.50;99.90;;;;;;5015243;28;20585;-71
2022/10/30 07:08:10;;;;;;;7.53;4.87;;;12.60;99.90;;;;;;5016560;28;20447;-67
2022/10/30 07:10:35;;;;;;;7.43;5.40;;;12.70;99.90;;;;;;5021798;28;20327;-66
2022/10/30 07:13:01;;;;;;;7.87;3.90;;;12.80;99.90;;;;;;5014915;28;20417;-64
2022/10/30 07:15:27;;;;;;;4.10;3.47;;;12.90;99.90;;;;;;5014539;28;20206;-65
2022/10/30 07:17:57;;;;;;;7.13;5.00;;;12.90;99.90;;;;;;5015234;28;20194;-69
2022/10/30 07:20:25;;;;;;;7.50;4.73;;;13.10;99.90;;;;;;5014906;28;20246;-66
2022/10/30 07:22:50;;;;;;;6.23;4.30;;;13.20;99.90;;;;;;4996769;28;20948;-72
2022/10/30 07:25:16;;;;;;;7.38;4.63;;;13.40;99.90;;;;;;4995444;28;20434;-68
2022/10/30 07:27:43;;;;;;;4.27;3.87;;;13.60;99.90;;;;;;4997025;28;20186;-65
2022/10/30 07:30:09;;;;;;;4.40;4.00;;;13.90;99.90;;;;;;5014650;28;20527;-67
2022/10/30 07:32:35;;;;;;;8.97;4.23;;;14.10;99.90;;;;;;4996796;28;20414;-66
2022/10/30 07:35:01;;;;;;;8.07;3.67;;;14.40;99.90;;;;;;5015013;28;20473;-66
2022/10/30 07:37:28;;;;;;;10.73;3.97;;;14.70;99.90;;;;;;5014661;28;20958;-63
2022/10/30 07:39:54;;;;;;;6.87;3.90;;;14.90;99.90;;;;;;5015393;28;20187;-67
2022/10/30 07:42:20;;;;;;;3.30;3.10;;;15.20;99.90;;;;;;5015648;28;20513;-66
2022/10/30 07:44:45;;;;;;;4.30;3.90;;;15.40;99.90;;;;;;5013892;28;20228;-66
2022/10/30 07:47:11;;;;;;;4.17;3.73;;;15.70;99.90;;;;;;5015322;28;20183;-65
2022/10/30 07:49:36;;;;;;;4.90;4.07;;;16.00;99.90;;;;;;5015803;28;20182;-66
2022/10/30 07:52:02;;;;;;;4.83;4.17;;;16.40;99.90;;;;;;5014850;28;20175;-65
2022/10/30 07:54:28;;;;;;;5.10;3.97;;;16.80;99.90;;;;;;5013118;28;20219;-65
2022/10/30 07:56:53;;;;;;;6.80;5.30;;;17.40;99.90;;;;;;5014120;28;20191;-69
2022/10/30 07:59:19;;;;;;;6.80;4.10;;;18.00;99.90;;;;;;5012878;28;20288;-68
2022/10/30 08:01:44;;;;;;;7.43;4.20;;;18.70;99.90;;;;;;5013989;28;20639;-67
2022/10/30 08:04:12;;;;;;;5.73;3.17;;;19.50;99.90;;;;;;5013894;28;20673;-69
2022/10/30 08:06:38;;;;;;;5.90;3.70;;;20.30;99.90;;;;;;5013649;28;20194;-69
2022/10/30 08:09:04;;;;;;;4.53;3.87;;;21.40;99.90;;;;;;5014408;28;20409;-68
2022/10/30 08:11:30;;;;;;;7.63;3.47;;;22.30;99.90;;;;;;5013138;28;20197;-69
2022/10/30 08:13:56;;;;;;;3.50;3.30;;;23.40;99.90;;;;;;4995911;28;20253;-64
2022/10/30 08:16:22;;;;;;;4.33;3.93;;;24.30;99.90;;;;;;5013641;28;20175;-65
2022/10/30 08:18:47;;;;;;;12.07;4.33;;;25.00;97.30;;;;;;5013118;28;20966;-69
2022/10/30 08:21:13;;;;;;;6.50;3.37;;;25.50;96.00;;;;;;5013242;28;20681;-67
2022/10/30 08:23:39;;;;;;;3.40;3.07;;;25.90;94.80;;;;;;5012856;28;20298;-69
2022/10/30 08:26:04;;;;;;;7.20;3.30;;;26.30;94.20;;;;;;5013666;28;20178;-70
2022/10/30 08:28:30;;;;;;;4.60;3.83;;;26.70;92.90;;;;;;5013740;28;20261;-72
2022/10/30 08:30:57;;;;;;;7.67;3.60;;;27.20;91.80;;;;;;5013852;28;20182;-69
2022/10/30 08:33:23;;;;;;;4.10;3.20;;;27.80;90.60;;;;;;5012289;28;20475;-69
2022/10/30 08:35:53;;;;;;;3.47;2.87;;;28.00;89.90;;;;;;5013239;28;20533;-70
2022/10/30 08:38:19;;;;;;;3.63;3.33;;;28.20;88.70;;;;;;5013349;28;20191;-70
2022/10/30 08:40:44;;;;;;;6.60;3.47;;;28.40;88.50;;;;;;5012938;28;20421;-69
2022/10/30 08:43:10;;;;;;;5.87;3.73;;;28.70;86.30;;;;;;5012474;28;20509;-69
2022/10/30 08:45:36;;;;;;;6.30;3.30;;;29.00;86.30;;;;;;5013163;28;20182;-69
2022/10/30 08:48:04;;;;;;;4.03;2.87;;;29.40;84.20;;;;;;5011865;28;20175;-73
2022/10/30 08:50:31;;;;;;;4.07;3.40;;;29.50;83.00;;;;;;5002308;28;20182;-69
2022/10/30 08:53:00;;;;;;;4.90;3.30;;;29.40;82.30;;;;;;5012360;28;20429;-71
2022/10/30 08:55:26;;;;;;;6.83;4.70;;;29.40;83.20;;;;;;4995470;28;20419;-70
2022/10/30 08:57:52;;;;;;;3.63;3.33;;;29.40;83.40;;;;;;4987340;28;20565;-72
2022/10/30 09:00:17;;;;;;;4.27;3.30;;;29.60;82.40;;;;;;5010646;28;20182;-70
2022/10/30 09:02:44;;;;;;;9.63;3.83;;;29.90;81.20;;;;;;5012053;28;20249;-72
2022/10/30 09:05:10;;;;;;;3.00;2.70;;;30.10;81.20;;;;;;5012714;28;20253;-69
2022/10/30 09:07:35;;;;;;;4.50;3.00;;;30.30;80.70;;;;;;4999243;28;20385;-71
2022/10/30 09:10:02;;;;;;;5.40;3.80;;;30.60;78.80;;;;;;5017576;28;20907;-69
2022/10/30 09:12:28;;;;;;;3.40;3.00;;;30.30;78.00;;;;;;5015338;28;20282;-66
2022/10/30 09:14:53;;;;;;;3.73;3.30;;;30.10;78.90;;;;;;5016222;28;20639;-67
2022/10/30 09:17:19;;;;;;;4.50;2.80;;;30.10;78.90;;;;;;5016324;28;20230;-65
2022/10/30 09:19:44;;;;;;;3.90;3.47;;;30.20;79.40;;;;;;5015799;28;20175;-67
2022/10/30 09:22:10;;;;;;;9.33;2.80;;;30.60;77.30;;;;;;5016410;28;20257;-68
2022/10/30 09:24:37;;;;;;;6.10;2.63;;;30.80;75.90;;;;;;5015297;28;20205;-65
2022/10/30 09:27:03;;;;;;;4.03;3.03;;;30.70;75.90;;;;;;5016179;28;20232;-67
2022/10/30 09:29:30;;;;;;;3.00;2.80;;;30.50;76.50;;;;;;5016731;28;20505;-63
2022/10/30 09:31:56;;;;;;;4.10;3.23;;;30.30;76.40;;;;;;5016269;28;20186;-68
2022/10/30 09:34:22;;;;;;;3.03;2.30;;;30.10;76.70;;;;;;5015383;28;20806;-67
2022/10/30 09:36:48;;;;;;;4.27;2.67;;;30.30;76.20;;;;;;5015344;28;20400;-67
2022/10/30 09:39:14;;;;;;;3.20;2.30;;;30.40;75.30;;;;;;5015648;28;20205;-66
2022/10/30 09:41:48;;;;;;;3.70;3.40;;;30.50;74.80;;;;;;5014369;28;20453;-64
2022/10/30 09:44:26;;;;;;;4.00;3.10;;;30.80;73.10;;;;;;5013322;28;20523;-67
2022/10/30 09:47:12;;;;;;;2.63;2.43;;;30.90;72.60;;;;;;5016241;28;20432;-65
2022/10/30 09:49:45;;;;;;;4.63;2.60;;;31.10;72.70;;;;;;5016824;28;20425;-63
2022/10/30 09:52:14;;;;;;;4.60;2.50;;;31.10;71.40;;;;;;5015854;28;20417;-67
2022/10/30 09:55:07;;;;;;;3.97;2.77;;;31.10;71.50;;;;;;5016139;28;20500;-67
2022/10/30 09:57:46;;;;;;;3.83;3.20;;;30.90;71.30;;;;;;5016614;28;20964;-63
2022/10/30 10:00:15;;;;;;;3.70;2.70;;;30.60;71.90;;;;;;5016574;28;20762;-68
2022/10/30 10:02:59;;;;;;;4.93;4.53;;;30.50;72.50;;;;;;5015765;28;20421;-65
2022/10/30 10:05:41;;;;;;;3.20;2.43;;;30.20;73.50;;;;;;5015871;28;20473;-66
2022/10/30 10:08:12;;;;;;;2.30;2.10;;;29.80;73.30;;;;;;5016008;28;20409;-67
2022/10/30 10:10:44;;;;;;;5.20;2.70;;;29.70;74.10;;;;;;5016642;28;20394;-63
2022/10/30 10:13:20;;;;;;;2.40;2.20;;;29.70;74.30;;;;;;5015852;28;20409;-67
2022/10/30 10:15:50;;;;;;;7.40;2.57;;;29.80;74.40;;;;;;5016390;28;20745;-67
2022/10/30 10:18:28;;;;;;;3.20;2.90;;;29.70;74.50;;;;;;5014267;28;21002;-67
2022/10/30 10:20:57;;;;;;;3.37;3.07;;;29.60;74.70;;;;;;5015172;28;20430;-64
2022/10/30 10:23:33;;;;;;;2.97;2.50;;;29.60;74.80;;;;;;5015782;28;20385;-67
2022/10/30 10:26:15;;;;;;;3.97;2.97;;;29.50;74.50;;;;;;5016006;28;20444;-64
2022/10/30 10:29:04;;;;;;;3.23;3.00;;;29.40;74.30;;;;;;5015261;28;20448;-67
2022/10/30 10:31:44;;;;;;;3.00;2.37;;;29.30;75.20;;;;;;5015244;28;20760;-64
2022/10/30 10:34:09;;;;;;;2.30;2.10;;;29.20;75.60;;;;;;5014596;28;20441;-64
2022/10/30 10:36:45;;;;;;;5.37;2.80;;;29.00;76.90;;;;;;5016061;28;20420;-64
2022/10/30 10:39:43;;;;;;;3.50;2.50;;;28.90;76.40;;;;;;5015776;28;20178;-65
2022/10/30 10:42:55;;;;;;;4.90;2.10;;;28.70;76.40;;;;;;5015323;28;20918;-68
2022/10/30 10:45:31;;;;;;;3.53;2.67;;;28.50;76.90;;;;;;4987123;28;20412;-67
2022/10/30 10:48:12;;;;;;;5.93;4.33;;;28.40;77.80;;;;;;5015819;28;20409;-64
2022/10/30 10:50:48;;;;;;;4.17;2.90;;;28.40;78.10;;;;;;5015696;28;20445;-67
2022/10/30 10:53:36;;;;;;;3.40;2.97;;;28.70;78.00;;;;;;5014627;28;20416;-66
2022/10/30 10:56:02;;;;;;;4.30;3.20;;;28.50;77.80;;;;;;5015990;28;20841;-66
2022/10/30 10:59:07;;;;;;;3.13;2.13;;;28.00;79.00;;;;;;5014900;28;20535;-64
2022/10/30 11:01:36;;;;;;;3.40;2.20;;;27.30;80.20;;;;;;4930018;29;20589;-66
2022/10/30 11:04:10;;;;;;;4.33;2.90;;;26.90;81.10;;;;;;5002028;28;20424;-67
2022/10/30 11:06:39;;;;;;;2.90;2.70;;;26.40;83.30;;;;;;5015347;28;20818;-67
2022/10/30 11:09:20;;;;;;;2.67;2.47;;;26.00;84.20;;;;;;5009738;28;20855;-67
2022/10/30 11:11:47;;;;;;;3.83;2.60;;;25.60;85.20;;;;;;5014922;28;20408;-67
2022/10/30 11:14:23;;;;;;;2.60;2.40;;;25.20;86.90;;;;;;5014717;28;20434;-64
2022/10/30 11:17:00;;;;;;;2.27;1.80;;;24.80;88.50;;;;;;5014801;28;20404;-66
2022/10/30 11:19:29;;;;;;;3.60;3.30;;;24.50;89.10;;;;;;4995535;28;20412;-63
2022/10/30 11:21:56;;;;;;;3.50;2.93;;;24.30;90.20;;;;;;4995484;28;20750;-68
2022/10/30 11:24:35;;;;;;;4.00;2.40;;;24.10;90.10;;;;;;4994899;28;20817;-63
2022/10/30 11:27:22;;;;;;;3.63;2.43;;;24.10;90.50;;;;;;5001316;28;20400;-67
2022/10/30 11:30:03;;;;;;;4.27;2.60;;;24.10;90.40;;;;;;5014612;28;20777;-67
2022/10/30 11:32:32;;;;;;;3.57;3.27;;;24.10;90.30;;;;;;4997502;28;20429;-66
2022/10/30 11:35:06;;;;;;;3.90;2.53;;;24.00;90.60;;;;;;5014257;28;21011;-66
2022/10/30 11:37:35;;;;;;;3.73;2.20;;;23.80;90.90;;;;;;5014169;28;20432;-66
2022/10/30 11:40:10;;;;;;;3.63;2.90;;;23.70;91.70;;;;;;5014285;28;20499;-64
2022/10/30 11:42:41;;;;;;;7.20;2.53;;;23.70;90.70;;;;;;5014016;28;20455;-67
2022/10/30 11:45:23;;;;;;;2.63;2.40;;;23.70;90.80;;;;;;5014375;28;20473;-67
2022/10/30 11:47:48;;;;;;;9.40;3.10;;;23.70;91.40;;;;;;5006813;28;20933;-64
2022/10/30 11:50:20;;;;;;;12.10;3.23;;;23.70;91.40;;;;;;5012214;28;20496;-67
2022/10/30 11:53:08;;;;;;;7.73;3.20;;;23.70;91.40;;;;;;5013491;28;20182;-64
2022/10/30 11:55:48;;;;;;;2.33;2.17;;;23.80;91.80;;;;;;5013733;28;20503;-67
2022/10/30 11:58:29;;;;;;;3.40;2.27;;;23.80;91.50;;;;;;4996736;28;20460;-66
2022/10/30 12:01:10;;;;;;;2.80;2.30;;;23.90;91.30;;;;;;5014198;28;20425;-64
2022/10/30 12:03:39;;;;;;;7.73;2.87;;;23.90;91.90;;;;;;4993143;28;20432;-66
2022/10/30 12:06:10;;;;;;;2.90;2.63;;;23.90;90.70;;;;;;4994443;28;20460;-65
2022/10/30 12:08:36;;;;;;;2.97;2.77;;;24.00;91.10;;;;;;4994557;28;20422;-67
2022/10/30 12:11:04;;;;;;;4.17;2.00;;;24.00;91.20;;;;;;5012369;28;20421;-65
2022/10/30 12:13:38;;;;;;;3.87;2.23;;;24.00;91.20;;;;;;5012341;28;20497;-65
2022/10/30 12:16:18;;;;;;;2.43;2.23;;;24.00;90.90;;;;;;5014199;28;20390;-64
2022/10/30 12:19:14;;;;;;;4.23;2.50;;;24.00;90.70;;;;;;5013278;28;20502;-66
2022/10/30 12:21:52;;;;;;;3.97;2.20;;;24.00;90.70;;;;;;5013290;28;20537;-66
2022/10/30 12:24:25;;;;;;;3.53;3.20;;;24.00;90.80;;;;;;5013301;28;20767;-64
2022/10/30 12:26:54;;;;;;;2.33;2.13;;;24.00;90.80;;;;;;5013302;28;20512;-65
2022/10/30 12:29:25;;;;;;;9.97;6.20;;;23.90;91.30;;;;;;5013748;28;20414;-64
2022/10/30 12:31:58;;;;;;;9.43;6.30;;;23.90;91.60;;;;;;5013230;28;20528;-65
2022/10/30 12:34:33;;;;;;;5.60;4.43;;;23.90;91.60;;;;;;5012716;28;20515;-66
2022/10/30 12:37:08;;;;;;;4.57;3.53;;;24.00;91.60;;;;;;5012727;28;20957;-65
2022/10/30 12:40:27;;;;;;;4.60;2.83;;;24.10;91.30;;;;;;5007049;28;20396;-65
2022/10/30 12:43:11;;;;;;;3.50;2.40;;;24.20;90.90;;;;;;4960806;28;20543;-64
2022/10/30 12:45:42;;;;;;;4.10;3.20;;;24.30;90.90;;;;;;4994203;28;20377;-66
2022/10/30 12:48:27;;;;;;;3.00;2.70;;;24.40;91.10;;;;;;4994174;28;20769;-67
2022/10/30 12:51:04;;;;;;;3.03;2.80;;;24.40;90.90;;;;;;5009362;28;20407;-65
2022/10/30 12:53:49;;;;;;;2.90;2.37;;;24.50;90.80;;;;;;4995590;28;21100;-67
2022/10/30 12:56:19;;;;;;;4.90;2.40;;;24.50;90.60;;;;;;5013100;28;20419;-64
2022/10/30 12:58:55;;;;;;;3.53;2.10;;;24.60;90.70;;;;;;5012989;28;20785;-67
2022/10/30 13:01:46;;;;;;;6.03;2.50;;;24.60;90.70;;;;;;5013462;28;20480;-64
2022/10/30 13:04:19;;;;;;;3.70;2.30;;;24.60;90.90;;;;;;5012373;28;20476;-64
2022/10/30 13:07:03;;;;;;;2.97;2.03;;;24.60;90.70;;;;;;5013472;28;20509;-67
2022/10/30 13:09:40;;;;;;;3.43;1.67;;;24.60;90.70;;;;;;5012734;28;20432;-64
2022/10/30 13:12:22;;;;;;;2.87;2.33;;;24.60;90.80;;;;;;5013503;28;20384;-68
2022/10/30 13:14:56;;;;;;;4.73;2.07;;;24.60;91.10;;;;;;5013187;28;20569;-65
2022/10/30 13:17:22;;;;;;;2.83;2.60;;;24.60;91.30;;;;;;5012640;28;20462;-67
2022/10/30 13:19:49;;;;;;;3.40;2.47;;;24.50;91.20;;;;;;4995619;28;20396;-67
2022/10/30 13:22:39;;;;;;;6.33;2.70;;;24.50;91.20;;;;;;5013152;28;20420;-67
2022/10/30 13:25:54;;;;;;;2.80;2.60;;;24.50;91.10;;;;;;4995618;28;20420;-66
2022/10/30 13:28:29;;;;;;;2.80;2.10;;;24.50;91.10;;;;;;4977872;28;20494;-64
2022/10/30 13:31:36;;;;;;;6.10;5.70;;;24.40;91.00;;;;;;4991384;28;20501;-64
2022/10/30 13:34:19;;;;;;;3.10;2.30;;;24.40;91.10;;;;;;4969487;28;20493;-65
2022/10/30 13:36:54;;;;;;;9.50;2.63;;;24.40;91.40;;;;;;4991939;28;20389;-67
2022/10/30 13:39:34;;;;;;;4.90;2.50;;;24.30;91.40;;;;;;4990749;28;20431;-64
2022/10/30 13:42:26;;;;;;;3.73;2.80;;;24.30;91.70;;;;;;4991581;28;20393;-66
2022/10/30 13:45:01;;;;;;;4.63;2.03;;;24.20;91.30;;;;;;4987472;28;20887;-66
2022/10/30 13:47:52;;;;;;;2.70;2.50;;;24.20;91.30;;;;;;4991440;28;20380;-65
2022/10/30 13:50:54;;;;;;;3.03;2.23;;;24.10;91.30;;;;;;4991332;28;20897;-67
2022/10/30 13:53:25;;;;;;;5.13;2.20;;;24.10;91.20;;;;;;4962854;28;20412;-67
2022/10/30 13:55:53;;;;;;;2.53;2.30;;;24.10;91.10;;;;;;4995361;28;20399;-64
2022/10/30 13:58:49;;;;;;;3.43;3.00;;;24.00;91.10;;;;;;4994869;28;20511;-64
2022/10/30 14:01:33;;;;;;;5.10;1.83;;;24.00;91.10;;;;;;4995011;28;20958;-64
2022/10/30 14:04:11;;;;;;;5.50;2.80;;;24.00;91.00;;;;;;5001683;28;20504;-64
2022/10/30 14:07:00;;;;;;;4.00;2.60;;;24.00;91.00;;;;;;5016105;28;20480;-69
2022/10/30 14:09:42;;;;;;;7.13;2.33;;;24.00;91.10;;;;;;5016008;28;20436;-63
2022/10/30 14:12:45;;;;;;;5.23;2.60;;;24.00;91.20;;;;;;5016433;28;20408;-66
2022/10/30 14:15:28;;;;;;;4.17;2.43;;;24.00;91.10;;;;;;5016305;28;20396;-66
2022/10/30 14:18:12;;;;;;;8.23;2.37;;;24.00;91.20;;;;;;5016413;28;20482;-65
2022/10/30 14:20:51;;;;;;;3.83;2.60;;;24.00;91.00;;;;;;5016239;28;20774;-65
2022/10/30 14:23:28;;;;;;;6.23;2.63;;;23.90;90.80;;;;;;5015241;28;20421;-68
2022/10/30 14:26:03;;;;;;;2.43;2.23;;;23.80;90.30;;;;;;5016415;28;20411;-64
2022/10/30 14:28:49;;;;;;;3.13;2.93;;;23.80;90.20;;;;;;5016202;28;20594;-67
2022/10/30 14:31:17;;;;;;;1.90;1.70;;;23.70;89.40;;;;;;5015575;28;20476;-64
2022/10/30 14:33:48;;;;;;;2.63;1.90;;;23.60;88.00;;;;;;5015483;28;20412;-64
2022/10/30 14:36:17;;;;;;;3.63;2.30;;;23.50;88.00;;;;;;5015036;28;20778;-67
2022/10/30 14:38:54;;;;;;;4.27;2.27;;;23.50;88.20;;;;;;5013088;28;20537;-67
2022/10/30 14:41:44;;;;;;;2.97;2.30;;;23.40;88.50;;;;;;5015003;28;20413;-64
2022/10/30 14:44:35;;;;;;;4.73;3.73;;;23.30;90.80;;;;;;5015516;28;20403;-66
2022/10/30 14:47:19;;;;;;;3.97;3.67;;;23.20;92.60;;;;;;5015050;28;20418;-67
2022/10/30 14:49:47;;;;;;;8.47;6.03;;;23.10;94.30;;;;;;5015440;28;20884;-67
2022/10/30 14:52:40;;;;;;;12.27;7.20;;;22.90;94.80;;;;;;5015220;28;20409;-67
2022/10/30 14:55:27;;;;;;;5.57;4.97;;;22.80;95.10;;;;;;5014464;28;20508;-67
2022/10/30 14:58:01;;;;;;;5.93;4.13;;;22.70;95.20;;;;;;5014555;28;20454;-64
2022/10/30 15:00:29;;;;;;;8.13;3.73;;;22.60;95.20;;;;;;5015246;28;20446;-67
2022/10/30 15:03:17;;;;;;;4.57;4.13;;;22.50;95.20;;;;;;5015035;28;20408;-65
2022/10/30 15:05:57;;;;;;;8.90;4.23;;;22.40;95.40;;;;;;5014753;28;20426;-66
2022/10/30 15:08:38;;;;;;;4.60;3.67;;;22.30;95.70;;;;;;5015195;28;20426;-66
2022/10/30 15:11:25;;;;;;;6.77;4.77;;;22.20;96.00;;;;;;5015139;28;20772;-63
2022/10/30 15:13:56;;;;;;;5.20;4.37;;;22.10;96.30;;;;;;5014893;28;20447;-65
2022/10/30 15:16:25;;;;;;;5.13;4.17;;;22.00;96.50;;;;;;5014686;28;20453;-66
2022/10/30 15:18:56;;;;;;;5.17;4.67;;;22.00;96.90;;;;;;5014809;28;20476;-67
2022/10/30 15:21:24;;;;;;;5.33;3.80;;;21.80;97.40;;;;;;5015107;28;20448;-64
2022/10/30 15:23:53;;;;;;;6.60;3.60;;;21.70;97.90;;;;;;5014561;28;20430;-64
2022/10/30 15:26:22;;;;;;;8.20;4.80;;;21.60;98.50;;;;;;5014591;28;20422;-64
2022/10/30 15:28:52;;;;;;;5.70;4.43;;;21.50;98.90;;;;;;5014565;28;20440;-69
2022/10/30 15:31:25;;;;;;;6.77;5.00;;;21.40;99.10;;;;;;5014651;28;20486;-64
2022/10/30 15:33:56;;;;;;;5.97;4.80;;;21.30;98.90;;;;;;5014326;28;20429;-64
2022/10/30 15:36:29;;;;;;;6.63;3.93;;;21.20;98.70;;;;;;5014302;28;20440;-67
2022/10/30 15:39:12;;;;;;;6.73;3.97;;;21.10;98.70;;;;;;5014550;28;20431;-66
2022/10/30 15:41:45;;;;;;;4.53;4.13;;;21.00;98.60;;;;;;5014391;28;20472;-66
2022/10/30 15:44:18;;;;;;;6.73;3.00;;;20.90;98.20;;;;;;5013965;28;21017;-64
2022/10/30 15:46:49;;;;;;;5.30;3.40;;;20.80;97.80;;;;;;5014774;28;20417;-66
2022/10/30 15:49:19;;;;;;;5.13;3.37;;;20.80;98.00;;;;;;5014002;28;20529;-64
2022/10/30 15:51:46;;;;;;;4.17;3.80;;;20.70;98.50;;;;;;5014387;28;20512;-67
2022/10/30 15:54:18;;;;;;;4.30;3.90;;;20.60;98.90;;;;;;5013501;28;20449;-64
2022/10/30 15:56:48;;;;;;;6.50;2.97;;;20.50;99.00;;;;;;5013984;28;20422;-65
2022/10/30 15:59:34;;;;;;;3.70;3.33;;;20.40;98.70;;;;;;5014512;28;20476;-64
2022/10/30 16:02:00;;;;;;;3.80;2.83;;;20.30;98.50;;;;;;5014335;28;20395;-65
2022/10/30 16:04:35;;;;;;;13.93;4.10;;;20.20;98.70;;;;;;4995933;28;20935;-65
2022/10/30 16:07:14;;;;;;;6.70;5.70;;;20.20;99.00;;;;;;5013826;28;20976;-66
2022/10/30 16:09:54;;;;;;;9.07;4.30;;;20.20;99.90;;;;;;5013702;28;20449;-64
2022/10/30 16:12:30;;;;;;;5.63;4.67;;;20.00;99.90;;;;;;5009288;28;20421;-65
2022/10/30 16:14:57;;;;;;;7.37;5.50;;;19.90;99.90;;;;;;4996697;28;20492;-64
2022/10/30 16:17:25;;;;;;;9.40;7.80;;;19.80;99.90;;;;;;5013511;28;20835;-61
2022/10/30 16:19:54;;;;;;;11.00;8.77;;;19.70;99.90;;;;;;5013330;28;20790;-63
2022/10/30 16:22:26;;;;;;;16.13;10.63;;;19.50;99.90;;;;;;5013202;28;20423;-63
2022/10/30 16:24:53;;;;;;;11.60;8.10;;;19.40;99.80;;;;;;5013797;28;20429;-65
2022/10/30 16:27:21;;;;;;;11.63;8.10;;;19.30;99.90;;;;;;5012732;28;20972;-65
2022/10/30 16:29:50;;;;;;;11.77;8.90;;;19.30;99.90;;;;;;5013142;28;20438;-64
2022/10/30 16:32:18;;;;;;;13.80;8.80;;;19.20;99.90;;;;;;5013618;28;20456;-64
2022/10/30 16:34:45;;;;;;;9.27;6.23;;;19.10;99.90;;;;;;5013115;28;20425;-66
2022/10/30 16:37:22;;;;;;;16.17;6.93;;;19.00;99.90;;;;;;5013400;28;20425;-67
2022/10/30 16:39:49;;;;;;;11.10;7.17;;;18.90;99.90;;;;;;4996026;28;20399;-64
2022/10/30 16:42:25;;;;;;;9.93;6.90;;;18.90;99.90;;;;;;5013186;28;20396;-63
2022/10/30 16:45:09;;;;;;;9.57;6.37;;;18.80;99.90;;;;;;5013490;28;20397;-65
2022/10/30 16:47:37;;;;;;;10.50;7.03;;;18.70;99.90;;;;;;5010413;28;20512;-63
2022/10/30 16:50:05;;;;;;;9.10;5.70;;;18.60;99.90;;;;;;5013380;28;20392;-67
2022/10/30 16:52:36;;;;;;;9.57;6.80;;;18.50;99.90;;;;;;5012683;28;20457;-67
2022/10/30 16:55:22;;;;;;;12.70;6.57;;;18.50;99.90;;;;;;5013589;28;20404;-67
2022/10/30 16:57:53;;;;;;;7.17;5.93;;;18.40;99.90;;;;;;5012849;28;20549;-65
2022/10/30 17:00:21;;;;;;;8.13;6.20;;;18.30;99.90;;;;;;5010669;28;20516;-64
2022/10/30 17:02:49;;;;;;;6.80;5.10;;;18.20;99.90;;;;;;5011186;28;20766;-64
2022/10/30 17:05:28;;;;;;;8.50;5.40;;;18.10;99.90;;;;;;5013192;28;20540;-65
2022/10/30 17:07:56;;;;;;;10.10;5.97;;;18.00;99.90;;;;;;5013355;28;20739;-63
2022/10/30 17:10:41;;;;;;;7.10;4.67;;;17.90;99.90;;;;;;5013293;28;20911;-66
2022/10/30 17:13:33;;;;;;;8.13;5.30;;;17.90;99.90;;;;;;5013110;28;20912;-66
2022/10/30 17:16:17;;;;;;;5.43;4.70;;;17.80;99.90;;;;;;5013382;28;20911;-64